Time;durP1;ratioP1;P1;durP2;ratioP2;P2;SDS_P1;SDS_P2;PMS_P1;PMS_P2;Temp;Humidity;BMP_temperature;BMP_pressure;BME280_temperature;BME280_humidity;BME280_pressure;Samples;Min_cycle;Max_cycle;Signal;HPM_P1;HPM_P2
2023/07/23 00:00:57;;;;;;;5.10;4.20;;;24.40;52.20;;;;;;5065126;28;20507;-80
2023/07/23 00:03:31;;;;;;;4.30;3.90;;;24.50;52.20;;;;;;5055669;28;20425;-84
2023/07/23 00:06:19;;;;;;;6.80;4.17;;;24.40;52.10;;;;;;5083684;28;20464;-85
2023/07/23 00:08:58;;;;;;;5.53;4.53;;;24.40;52.10;;;;;;5074709;28;20445;-84
2023/07/23 00:18:05;;;;;;;4.13;3.83;;;24.50;52.30;;;;;;5068681;28;20466;-85
2023/07/23 00:20:53;;;;;;;4.90;4.50;;;24.40;52.20;;;;;;5068744;28;20445;-84
2023/07/23 00:30:06;;;;;;;5.30;3.90;;;24.40;52.40;;;;;;5053615;28;20785;-85
2023/07/23 00:32:58;;;;;;;4.80;4.40;;;24.40;52.30;;;;;;5068444;28;20405;-85
2023/07/23 00:35:36;;;;;;;4.37;4.07;;;24.40;52.40;;;;;;5067553;28;20413;-85
2023/07/23 00:38:22;;;;;;;5.67;4.60;;;24.40;52.30;;;;;;5059470;28;20442;-85
2023/07/23 00:41:27;;;;;;;4.20;3.43;;;24.40;52.30;;;;;;5067223;28;20443;-85
2023/07/23 00:44:17;;;;;;;4.50;4.20;;;24.40;52.40;;;;;;5068356;28;20446;-85
2023/07/23 00:50:10;;;;;;;4.70;4.30;;;24.30;52.00;;;;;;5065919;28;20453;-85
2023/07/23 00:53:13;;;;;;;6.17;4.13;;;24.30;52.30;;;;;;5063705;28;21022;-85
2023/07/23 00:56:04;;;;;;;4.30;3.40;;;24.30;52.20;;;;;;5066328;28;20467;-85
2023/07/23 00:59:05;;;;;;;4.70;3.73;;;24.30;52.60;;;;;;5067152;28;20462;-84
2023/07/23 01:01:50;;;;;;;8.80;3.70;;;24.30;52.40;;;;;;5069989;28;20389;-86
2023/07/23 01:07:56;;;;;;;4.53;4.20;;;24.30;52.40;;;;;;5064422;28;20493;-86
2023/07/23 01:13:32;;;;;;;5.13;3.80;;;24.30;52.40;;;;;;5058757;28;20419;-87
2023/07/23 01:16:25;;;;;;;3.70;3.40;;;24.30;52.60;;;;;;5058316;28;20491;-85
2023/07/23 01:19:02;;;;;;;4.07;3.67;;;24.30;52.50;;;;;;5063325;28;20432;-85
2023/07/23 01:21:46;;;;;;;3.47;3.27;;;24.30;52.40;;;;;;5066188;28;20449;-85
2023/07/23 01:24:38;;;;;;;5.70;3.80;;;24.30;52.40;;;;;;5066727;28;20467;-85
2023/07/23 01:27:32;;;;;;;4.20;3.67;;;24.30;52.60;;;;;;5058674;28;20432;-85
2023/07/23 01:39:29;;;;;;;3.77;3.47;;;24.30;52.60;;;;;;5062589;28;20425;-86
2023/07/23 01:42:31;;;;;;;4.10;3.80;;;24.30;52.80;;;;;;5062748;28;20421;-85
2023/07/23 01:48:39;;;;;;;3.73;3.43;;;24.30;52.70;;;;;;5051553;28;20438;-85
2023/07/23 01:51:34;;;;;;;3.60;3.30;;;24.20;52.70;;;;;;5064035;28;20442;-85
2023/07/23 01:54:28;;;;;;;5.90;4.00;;;24.30;52.80;;;;;;5059108;28;20452;-84
2023/07/23 01:57:14;;;;;;;4.10;3.80;;;24.20;52.70;;;;;;5062787;28;20453;-85
2023/07/23 02:00:19;;;;;;;3.77;3.47;;;24.30;52.80;;;;;;5061563;28;20492;-84
2023/07/23 02:06:11;;;;;;;4.13;3.83;;;24.20;52.60;;;;;;5063839;28;20959;-83
2023/07/23 02:09:03;;;;;;;4.10;3.70;;;24.20;52.80;;;;;;5066601;28;20451;-84
2023/07/23 02:11:46;;;;;;;3.60;3.30;;;24.20;52.80;;;;;;5067508;28;20421;-85
2023/07/23 02:14:55;;;;;;;5.17;3.90;;;24.20;52.70;;;;;;5066204;28;20496;-84
2023/07/23 02:17:50;;;;;;;3.60;3.30;;;24.20;52.70;;;;;;5064474;28;20482;-85
2023/07/23 02:20:40;;;;;;;3.93;3.63;;;24.20;52.80;;;;;;5061338;28;20451;-85
2023/07/23 02:23:18;;;;;;;3.80;3.30;;;24.20;52.90;;;;;;5068128;28;20445;-84
2023/07/23 02:26:05;;;;;;;3.80;3.50;;;24.20;52.80;;;;;;5067810;28;20438;-85
2023/07/23 02:28:48;;;;;;;4.63;3.80;;;24.20;52.90;;;;;;5061431;28;20467;-84
2023/07/23 02:31:27;;;;;;;4.90;3.23;;;24.10;52.80;;;;;;5060240;28;20450;-85
2023/07/23 02:34:12;;;;;;;5.03;3.63;;;24.20;53.00;;;;;;5066172;28;20477;-85
2023/07/23 02:36:51;;;;;;;5.90;4.00;;;24.20;53.00;;;;;;5067929;28;20474;-84
2023/07/23 02:39:38;;;;;;;4.13;3.70;;;24.20;52.90;;;;;;5068447;28;20473;-83
2023/07/23 02:45:15;;;;;;;3.83;3.53;;;24.10;53.00;;;;;;5069807;28;20469;-83
2023/07/23 02:48:16;;;;;;;3.80;3.47;;;24.10;53.00;;;;;;5072262;28;20459;-83
2023/07/23 02:51:07;;;;;;;3.80;3.50;;;24.10;53.00;;;;;;5070685;28;20447;-83
2023/07/23 02:53:44;;;;;;;4.00;3.63;;;24.10;53.00;;;;;;5071116;28;20462;-82
2023/07/23 02:56:16;;;;;;;4.20;3.83;;;24.10;53.20;;;;;;5071280;28;20462;-83
2023/07/23 02:58:44;;;;;;;6.10;3.57;;;24.10;53.00;;;;;;5069317;28;20557;-83
2023/07/23 03:01:18;;;;;;;3.90;3.57;;;24.10;53.20;;;;;;5069290;28;20437;-83
2023/07/23 03:03:53;;;;;;;4.73;4.07;;;24.10;53.20;;;;;;5070062;28;20432;-82
2023/07/23 03:06:23;;;;;;;4.70;3.70;;;24.00;53.10;;;;;;5067779;28;20497;-82
2023/07/23 03:08:55;;;;;;;4.63;3.57;;;24.10;53.40;;;;;;5069331;28;20826;-83
2023/07/23 03:11:28;;;;;;;4.00;3.57;;;24.00;53.30;;;;;;5070011;28;20432;-82
2023/07/23 03:14:04;;;;;;;3.93;3.63;;;24.00;53.50;;;;;;5070342;28;20600;-81
2023/07/23 03:16:35;;;;;;;5.10;4.40;;;24.00;53.40;;;;;;5070448;28;20474;-82
2023/07/23 03:19:11;;;;;;;5.70;5.13;;;24.00;53.40;;;;;;5065598;28;20929;-83
2023/07/23 03:21:44;;;;;;;5.97;5.40;;;24.00;53.50;;;;;;5061834;28;20491;-82
2023/07/23 03:24:14;;;;;;;6.10;5.27;;;24.00;53.60;;;;;;5066495;28;20453;-82
2023/07/23 03:26:45;;;;;;;8.13;5.90;;;24.00;53.50;;;;;;5068562;28;20485;-82
2023/07/23 03:29:17;;;;;;;6.00;5.20;;;24.00;53.50;;;;;;5067124;28;20442;-81
2023/07/23 03:31:46;;;;;;;6.20;5.57;;;24.00;53.60;;;;;;5066769;28;20463;-81
2023/07/23 03:34:17;;;;;;;11.40;6.03;;;24.00;53.50;;;;;;5066838;28;20423;-82
2023/07/23 03:36:47;;;;;;;7.90;6.03;;;24.00;53.70;;;;;;5067911;28;20463;-82
2023/07/23 03:39:18;;;;;;;12.03;6.20;;;23.90;53.50;;;;;;5069088;28;20517;-82
2023/07/23 03:41:51;;;;;;;8.63;6.10;;;23.90;53.60;;;;;;5067793;28;20453;-81
2023/07/23 03:44:24;;;;;;;9.43;6.03;;;23.90;53.60;;;;;;5067099;28;20455;-82
2023/07/23 03:47:10;;;;;;;6.17;5.17;;;23.90;53.70;;;;;;5067939;28;20505;-82
2023/07/23 03:49:41;;;;;;;7.03;6.03;;;23.90;53.60;;;;;;5062690;28;20438;-82
2023/07/23 03:52:11;;;;;;;6.93;6.17;;;23.90;53.70;;;;;;5068424;28;20439;-82
2023/07/23 03:54:39;;;;;;;7.80;6.00;;;23.90;53.60;;;;;;5066781;28;20446;-82
2023/07/23 03:57:07;;;;;;;8.57;5.73;;;23.90;53.60;;;;;;5065222;28;20489;-84
2023/07/23 03:59:36;;;;;;;6.50;5.80;;;23.80;53.70;;;;;;5067161;28;20454;-82
2023/07/23 04:02:05;;;;;;;7.17;5.73;;;23.90;53.80;;;;;;5068233;28;20500;-82
2023/07/23 04:04:33;;;;;;;5.90;5.27;;;23.90;53.80;;;;;;5068360;28;20446;-83
2023/07/23 04:07:08;;;;;;;6.23;5.50;;;23.90;53.60;;;;;;5066365;28;20532;-83
2023/07/23 04:09:44;;;;;;;6.50;5.63;;;23.90;53.60;;;;;;5068636;28;20454;-83
2023/07/23 04:12:16;;;;;;;6.10;5.53;;;23.90;53.60;;;;;;5067658;28;20432;-83
2023/07/23 04:14:47;;;;;;;7.03;5.83;;;23.80;53.70;;;;;;5066729;28;20453;-82
2023/07/23 04:17:16;;;;;;;6.57;5.87;;;23.90;53.80;;;;;;5068480;28;20478;-82
2023/07/23 04:19:45;;;;;;;7.00;5.97;;;23.90;53.60;;;;;;5068424;28;20471;-83
2023/07/23 04:22:16;;;;;;;6.37;5.60;;;23.90;53.70;;;;;;5062248;28;20470;-82
2023/07/23 04:24:52;;;;;;;8.00;5.93;;;23.90;53.70;;;;;;5062925;28;20458;-83
2023/07/23 04:27:21;;;;;;;7.37;5.70;;;23.80;53.50;;;;;;5069064;28;20462;-83
2023/07/23 04:29:49;;;;;;;7.47;5.73;;;23.80;53.70;;;;;;5067799;28;20451;-83
2023/07/23 04:32:19;;;;;;;9.87;5.93;;;23.80;53.60;;;;;;5067543;28;20421;-83
2023/07/23 04:34:48;;;;;;;6.53;5.50;;;23.80;53.70;;;;;;5068782;28;20464;-82
2023/07/23 04:37:23;;;;;;;6.57;5.87;;;23.80;53.80;;;;;;5066401;28;20477;-83
2023/07/23 04:39:59;;;;;;;7.13;6.13;;;23.80;53.70;;;;;;5068991;28;20443;-82
2023/07/23 04:42:28;;;;;;;5.60;5.10;;;23.80;53.60;;;;;;5067761;28;20405;-82
2023/07/23 04:45:01;;;;;;;7.67;5.50;;;23.90;53.60;;;;;;5068049;28;20428;-83
2023/07/23 04:47:42;;;;;;;5.67;5.17;;;23.80;53.50;;;;;;5056952;28;20449;-82
2023/07/23 04:50:18;;;;;;;5.70;5.10;;;23.90;53.70;;;;;;5067237;28;20469;-82
2023/07/23 04:52:50;;;;;;;6.20;5.30;;;23.90;53.60;;;;;;5067249;28;20453;-82
2023/07/23 04:55:26;;;;;;;8.30;5.77;;;23.90;53.70;;;;;;5067296;28;20518;-83
2023/07/23 04:57:58;;;;;;;11.77;5.53;;;23.90;53.50;;;;;;5067859;28;20441;-83
2023/07/23 05:00:32;;;;;;;5.37;4.87;;;23.90;53.60;;;;;;5067981;28;20481;-83
2023/07/23 05:05:50;;;;;;;6.40;5.67;;;23.90;53.60;;;;;;5059506;28;20446;-82
2023/07/23 05:08:28;;;;;;;5.10;4.60;;;23.90;53.50;;;;;;5064759;28;20461;-80
2023/07/23 05:11:02;;;;;;;7.27;5.20;;;23.90;53.60;;;;;;5056038;28;20541;-80
2023/07/23 05:13:34;;;;;;;5.57;5.07;;;23.90;53.60;;;;;;5063297;28;20517;-80
2023/07/23 05:16:10;;;;;;;6.50;5.40;;;23.90;53.60;;;;;;5063218;28;20476;-79
2023/07/23 05:18:41;;;;;;;4.77;4.37;;;23.90;53.60;;;;;;5063321;28;20467;-80
2023/07/23 05:21:10;;;;;;;6.00;5.40;;;23.90;53.60;;;;;;5062681;28;20433;-80
2023/07/23 05:26:45;;;;;;;4.80;4.40;;;23.90;53.50;;;;;;5053999;28;20461;-82
2023/07/23 05:29:34;;;;;;;5.60;4.67;;;23.90;53.50;;;;;;5064416;28;20496;-81
2023/07/23 05:32:15;;;;;;;9.63;5.00;;;23.90;53.50;;;;;;5063982;28;20712;-79
2023/07/23 05:34:54;;;;;;;5.83;4.63;;;23.90;53.60;;;;;;5057680;28;20446;-80
2023/07/23 05:37:28;;;;;;;5.70;4.83;;;23.90;53.50;;;;;;5060357;28;20465;-79
2023/07/23 05:40:13;;;;;;;5.23;4.73;;;23.90;53.60;;;;;;5062541;28;20476;-79
2023/07/23 05:42:45;;;;;;;5.43;4.93;;;23.90;53.50;;;;;;5062646;28;20442;-80
2023/07/23 05:45:26;;;;;;;4.27;3.87;;;23.90;53.60;;;;;;5064463;28;20450;-81
2023/07/23 05:48:06;;;;;;;5.33;4.87;;;23.90;53.50;;;;;;5068017;28;20458;-82
2023/07/23 05:50:44;;;;;;;6.50;4.67;;;24.00;53.40;;;;;;5067717;28;20519;-83
2023/07/23 05:53:18;;;;;;;5.30;4.30;;;24.00;53.40;;;;;;5066023;28;20462;-83
2023/07/23 05:55:53;;;;;;;5.73;5.00;;;24.00;53.40;;;;;;5068201;28;20417;-83
2023/07/23 05:58:23;;;;;;;5.30;4.80;;;24.00;53.40;;;;;;5069361;28;20456;-83
2023/07/23 06:00:55;;;;;;;5.53;4.60;;;24.00;53.20;;;;;;5068641;28;20484;-83
2023/07/23 06:03:31;;;;;;;7.10;4.33;;;24.00;53.30;;;;;;5067242;28;20465;-83
2023/07/23 06:06:23;;;;;;;4.47;4.07;;;24.00;53.50;;;;;;5067713;28;20458;-84
2023/07/23 06:08:57;;;;;;;7.30;4.30;;;24.00;53.30;;;;;;5066320;28;20420;-83
2023/07/23 06:11:28;;;;;;;5.30;4.80;;;24.10;53.30;;;;;;5067395;28;20484;-83
2023/07/23 06:14:06;;;;;;;5.13;4.30;;;24.00;53.20;;;;;;5068570;28;20425;-83
2023/07/23 06:16:39;;;;;;;5.07;4.47;;;24.10;53.30;;;;;;5068150;28;20437;-83
2023/07/23 06:19:26;;;;;;;5.87;4.63;;;24.10;53.20;;;;;;5071298;28;20444;-83
2023/07/23 06:22:05;;;;;;;5.53;5.00;;;24.10;53.40;;;;;;5072548;28;20427;-83
2023/07/23 06:24:41;;;;;;;4.97;4.57;;;24.10;53.30;;;;;;5072327;28;20438;-83
2023/07/23 06:27:14;;;;;;;4.93;3.70;;;24.10;53.30;;;;;;5064645;28;20470;-82
2023/07/23 06:29:56;;;;;;;4.70;4.37;;;24.10;53.30;;;;;;5070134;28;20464;-83
2023/07/23 06:32:30;;;;;;;6.30;5.07;;;24.10;53.40;;;;;;5072230;28;20783;-82
2023/07/23 06:34:58;;;;;;;4.67;4.13;;;24.10;53.40;;;;;;5072419;28;20468;-83
2023/07/23 06:37:49;;;;;;;5.00;4.43;;;24.10;53.40;;;;;;5071771;28;20466;-83
2023/07/23 06:40:27;;;;;;;4.80;4.40;;;24.10;53.40;;;;;;5071183;28;20557;-84
2023/07/23 06:43:08;;;;;;;4.67;4.13;;;24.20;53.50;;;;;;5071514;28;20442;-82
2023/07/23 06:45:49;;;;;;;4.40;4.00;;;24.20;53.50;;;;;;5067885;28;20454;-82
2023/07/23 06:48:23;;;;;;;5.20;4.70;;;24.30;53.50;;;;;;5070025;28;20421;-82
2023/07/23 06:51:18;;;;;;;4.20;3.87;;;24.30;53.40;;;;;;5070975;28;20416;-84
2023/07/23 06:54:20;;;;;;;5.27;4.07;;;24.30;53.30;;;;;;5070961;28;20438;-83
2023/07/23 06:59:38;;;;;;;5.27;4.07;;;24.30;53.30;;;;;;5068974;28;20920;-82
2023/07/23 07:02:18;;;;;;;3.87;3.53;;;24.30;53.40;;;;;;5070750;28;20448;-82
2023/07/23 07:05:15;;;;;;;6.20;4.37;;;24.40;53.30;;;;;;5068501;28;20477;-82
2023/07/23 07:11:20;;;;;;;4.13;3.73;;;24.40;53.30;;;;;;5070614;28;20420;-82
2023/07/23 07:17:44;;;;;;;4.90;4.40;;;24.40;53.30;;;;;;5008493;28;20435;-83
2023/07/23 07:20:20;;;;;;;4.57;4.17;;;24.40;53.30;;;;;;5007526;28;20440;-82
2023/07/23 07:23:00;;;;;;;5.00;3.93;;;24.40;53.20;;;;;;5009392;28;20426;-82
2023/07/23 07:25:48;;;;;;;5.60;4.53;;;24.40;53.20;;;;;;5010441;28;20463;-84
2023/07/23 07:28:32;;;;;;;6.13;4.10;;;24.40;53.40;;;;;;5007653;28;20448;-83
2023/07/23 07:31:10;;;;;;;4.53;3.80;;;24.50;53.40;;;;;;5008338;28;20447;-82
2023/07/23 07:33:51;;;;;;;6.13;3.93;;;24.60;53.40;;;;;;5008667;28;20426;-83
2023/07/23 07:36:33;;;;;;;4.20;3.80;;;24.60;53.30;;;;;;5005573;28;20447;-83
2023/07/23 07:39:20;;;;;;;5.00;4.50;;;24.70;53.20;;;;;;5010168;28;20444;-83
2023/07/23 07:42:01;;;;;;;6.53;4.10;;;24.70;53.30;;;;;;5010180;28;20452;-83
2023/07/23 07:44:35;;;;;;;4.33;4.00;;;24.70;53.10;;;;;;5010077;28;20424;-83
2023/07/23 07:47:22;;;;;;;4.97;4.47;;;24.80;53.20;;;;;;5007910;28;20472;-83
2023/07/23 07:49:55;;;;;;;4.40;4.07;;;24.80;53.10;;;;;;5063496;28;20461;-82
2023/07/23 07:52:32;;;;;;;4.23;3.93;;;24.80;53.20;;;;;;5070536;28;20590;-83
2023/07/23 07:55:19;;;;;;;6.27;3.87;;;24.80;53.20;;;;;;5070489;28;20438;-83
2023/07/23 07:57:50;;;;;;;4.60;4.10;;;24.90;53.00;;;;;;5061621;28;20462;-83
2023/07/23 08:00:31;;;;;;;4.40;4.00;;;24.90;53.20;;;;;;5070602;28;20476;-83
2023/07/23 08:03:06;;;;;;;5.07;4.33;;;25.00;53.20;;;;;;5069484;28;20428;-83
2023/07/23 08:05:47;;;;;;;3.90;3.60;;;25.00;53.00;;;;;;5070864;28;20431;-83
2023/07/23 08:08:25;;;;;;;4.47;3.90;;;25.00;53.00;;;;;;5071534;28;20442;-83
2023/07/23 08:11:02;;;;;;;4.03;3.70;;;25.00;53.00;;;;;;5071281;28;20436;-83
2023/07/23 08:13:49;;;;;;;4.87;4.37;;;25.00;53.00;;;;;;5070868;28;20428;-83
2023/07/23 08:16:34;;;;;;;4.13;3.83;;;25.10;53.20;;;;;;5069717;28;20458;-83
2023/07/23 08:19:13;;;;;;;4.40;4.00;;;25.10;53.10;;;;;;5062983;28;20449;-83
2023/07/23 08:21:58;;;;;;;7.07;4.10;;;25.10;53.10;;;;;;5071265;28;20438;-83
2023/07/23 08:24:33;;;;;;;4.30;4.00;;;25.20;53.20;;;;;;5069493;28;20438;-84
2023/07/23 08:27:09;;;;;;;4.53;3.70;;;25.20;53.20;;;;;;5063589;28;20492;-83
2023/07/23 08:29:43;;;;;;;7.83;4.03;;;25.30;53.10;;;;;;5068921;28;20427;-83
2023/07/23 08:32:40;;;;;;;4.10;3.80;;;25.30;53.10;;;;;;5067506;28;20417;-84
2023/07/23 08:35:32;;;;;;;4.50;4.07;;;25.40;53.20;;;;;;5065613;28;20426;-84
2023/07/23 08:38:33;;;;;;;4.63;4.27;;;25.40;53.10;;;;;;5066817;28;20478;-84
2023/07/23 08:41:22;;;;;;;5.67;4.13;;;25.40;53.20;;;;;;5067975;28;20562;-84
2023/07/23 08:44:35;;;;;;;5.20;3.70;;;25.40;53.10;;;;;;5068022;28;20569;-85
2023/07/23 08:47:15;;;;;;;4.33;3.93;;;25.50;53.10;;;;;;5051602;28;20448;-84
2023/07/23 08:50:13;;;;;;;4.00;3.70;;;25.50;53.10;;;;;;5065721;28;20413;-84
2023/07/23 08:53:09;;;;;;;;;;;;;;;;;;;;;
2023/07/23 08:56:12;;;;;;;4.60;4.20;;;25.50;53.10;;;;;;5067257;28;20414;-84
2023/07/23 09:01:59;;;;;;;4.47;4.07;;;25.60;53.40;;;;;;5064410;28;20420;-85
2023/07/23 09:07:53;;;;;;;5.03;4.37;;;25.60;53.40;;;;;;5069275;28;20730;-84
2023/07/23 09:14:35;;;;;;;;;;;;;;;;;;;;;
2023/07/23 09:17:29;;;;;;;6.27;4.43;;;25.60;53.80;;;;;;5066872;28;20448;-84
2023/07/23 09:20:06;;;;;;;7.50;4.00;;;25.50;53.70;;;;;;5068516;28;20470;-84
2023/07/23 09:22:57;;;;;;;5.50;3.93;;;25.40;53.90;;;;;;5067554;28;20430;-84
2023/07/23 09:25:43;;;;;;;4.77;4.27;;;25.40;53.70;;;;;;5069286;28;20438;-83
2023/07/23 09:28:28;;;;;;;4.03;3.73;;;25.40;54.00;;;;;;5066556;28;20468;-83
2023/07/23 09:31:49;;;;;;;4.60;4.20;;;25.40;54.30;;;;;;5071840;28;20441;-81
2023/07/23 09:38:09;;;;;;;4.47;4.00;;;25.40;54.20;;;;;;4970706;28;20464;-83
2023/07/23 09:41:04;;;;;;;4.93;4.07;;;25.40;54.20;;;;;;5008960;28;20496;-81
2023/07/23 09:43:59;;;;;;;7.13;3.80;;;25.40;54.30;;;;;;5005003;28;20528;-84
2023/07/23 09:46:42;;;;;;;4.20;3.80;;;25.40;54.10;;;;;;5059955;28;20449;-83
2023/07/23 09:49:48;;;;;;;4.23;3.73;;;25.30;54.30;;;;;;5065518;28;20416;-83
2023/07/23 09:52:36;;;;;;;4.40;4.03;;;25.30;54.40;;;;;;5068281;28;20409;-84
2023/07/23 09:55:25;;;;;;;4.57;4.10;;;25.50;54.80;;;;;;5065095;28;20406;-84
2023/07/23 09:58:18;;;;;;;4.43;4.03;;;25.60;54.30;;;;;;5064426;28;20507;-84
2023/07/23 10:01:05;;;;;;;4.50;4.07;;;25.70;54.30;;;;;;5066879;28;20445;-82
2023/07/23 10:03:57;;;;;;;6.30;4.70;;;25.70;54.20;;;;;;5067074;28;20436;-84
2023/07/23 10:06:38;;;;;;;4.70;4.30;;;25.70;54.20;;;;;;5064039;28;20539;-87
2023/07/23 10:09:26;;;;;;;5.07;4.57;;;25.70;54.50;;;;;;5065863;28;20440;-82
2023/07/23 10:15:17;;;;;;;4.70;4.10;;;25.70;54.50;;;;;;5062517;28;20465;-83
2023/07/23 10:18:09;;;;;;;8.10;4.30;;;25.70;54.60;;;;;;5066810;28;20532;-83
2023/07/23 10:20:58;;;;;;;4.57;4.07;;;25.70;54.60;;;;;;5068724;28;20470;-84
2023/07/23 10:23:46;;;;;;;4.83;4.30;;;25.60;54.70;;;;;;5054963;28;20414;-84
2023/07/23 10:26:45;;;;;;;4.60;4.20;;;25.70;55.00;;;;;;5063714;28;20462;-83
2023/07/23 10:29:23;;;;;;;4.80;4.30;;;25.70;54.90;;;;;;5060447;28;20434;-82
2023/07/23 10:32:27;;;;;;;5.00;4.50;;;25.70;54.90;;;;;;5060153;28;20438;-82
2023/07/23 10:35:15;;;;;;;4.60;4.20;;;25.60;54.80;;;;;;5053815;28;20413;-80
2023/07/23 10:38:15;;;;;;;7.50;4.30;;;25.60;54.90;;;;;;5065178;28;20482;-83
2023/07/23 10:41:09;;;;;;;5.20;3.87;;;25.60;55.00;;;;;;5063655;28;20478;-82
2023/07/23 10:44:07;;;;;;;4.50;4.10;;;25.60;55.10;;;;;;5067696;28;20478;-85
2023/07/23 10:47:15;;;;;;;4.30;4.00;;;25.50;55.20;;;;;;5068382;28;20556;-81
2023/07/23 10:50:20;;;;;;;4.13;3.73;;;25.60;55.30;;;;;;5054443;28;20453;-83
2023/07/23 10:53:10;;;;;;;6.97;3.70;;;25.60;55.30;;;;;;5064504;28;20421;-82
2023/07/23 10:55:54;;;;;;;4.13;3.77;;;25.50;55.20;;;;;;5066464;28;20428;-81
2023/07/23 10:58:38;;;;;;;3.63;3.40;;;25.50;55.30;;;;;;5067646;28;20468;-82
2023/07/23 11:01:38;;;;;;;3.60;3.40;;;25.50;55.40;;;;;;5065560;28;20479;-84
2023/07/23 11:04:16;;;;;;;3.90;3.60;;;25.50;55.60;;;;;;5068122;28;20448;-82
2023/07/23 11:07:12;;;;;;;5.13;3.87;;;25.50;55.50;;;;;;5072810;28;20437;-83
2023/07/23 11:09:50;;;;;;;3.83;3.43;;;25.50;55.60;;;;;;5072257;28;20442;-83
2023/07/23 11:16:01;;;;;;;3.77;3.47;;;25.60;55.60;;;;;;5067967;28;20438;-83
2023/07/23 11:18:39;;;;;;;4.87;3.20;;;25.60;55.80;;;;;;5067725;28;20413;-82
2023/07/23 11:21:27;;;;;;;3.30;3.10;;;25.60;55.60;;;;;;5065278;28;20517;-84
2023/07/23 11:24:10;;;;;;;3.20;3.00;;;25.60;55.60;;;;;;5072831;28;20492;-84
2023/07/23 11:26:50;;;;;;;3.60;3.40;;;25.60;55.50;;;;;;5071248;28;20480;-84
2023/07/23 11:32:22;;;;;;;3.40;3.20;;;25.60;55.40;;;;;;5073446;28;20473;-85
2023/07/23 11:35:01;;;;;;;3.67;3.47;;;25.60;55.60;;;;;;5073576;28;20472;-84
2023/07/23 11:37:38;;;;;;;3.97;3.67;;;25.60;55.40;;;;;;5073546;28;20452;-83
2023/07/23 11:40:12;;;;;;;3.30;3.10;;;25.60;55.60;;;;;;5072254;28;20424;-84
2023/07/23 11:42:49;;;;;;;3.67;3.37;;;25.60;55.60;;;;;;5073253;28;20516;-83
2023/07/23 11:45:17;;;;;;;2.77;2.53;;;25.60;55.60;;;;;;5066124;28;20405;-83
2023/07/23 11:47:52;;;;;;;3.30;3.10;;;25.60;55.70;;;;;;5073925;28;20437;-84
2023/07/23 11:50:31;;;;;;;3.47;3.03;;;25.50;55.80;;;;;;5073387;28;20450;-82
2023/07/23 11:53:15;;;;;;;3.47;3.17;;;25.60;55.80;;;;;;5070825;28;20456;-84
2023/07/23 11:55:54;;;;;;;3.80;3.50;;;25.50;55.80;;;;;;5074368;28;20428;-82
2023/07/23 11:58:48;;;;;;;3.57;3.20;;;25.60;55.90;;;;;;5068427;28;20989;-85
2023/07/23 12:01:38;;;;;;;3.10;2.90;;;25.60;56.00;;;;;;5073737;28;20474;-86
2023/07/23 12:04:28;;;;;;;3.13;2.93;;;25.60;56.00;;;;;;5071185;28;20437;-86
2023/07/23 12:07:07;;;;;;;3.37;3.07;;;25.60;55.90;;;;;;5068661;28;20437;-83
2023/07/23 12:09:44;;;;;;;3.40;3.20;;;25.60;55.80;;;;;;5071485;28;20413;-84
2023/07/23 12:12:58;;;;;;;2.60;2.50;;;25.60;55.90;;;;;;5075149;28;20435;-85
2023/07/23 12:15:32;;;;;;;3.10;2.90;;;25.70;56.00;;;;;;5066573;28;20419;-86
2023/07/23 12:18:09;;;;;;;3.43;3.00;;;25.60;55.90;;;;;;5070519;28;20420;-82
2023/07/23 12:20:57;;;;;;;3.20;3.00;;;25.60;55.90;;;;;;5070290;28;20435;-85
2023/07/23 12:31:55;;;;;;;2.77;2.57;;;25.70;55.90;;;;;;4987945;28;20416;-83
2023/07/23 12:34:52;;;;;;;3.10;2.90;;;25.60;55.90;;;;;;4990876;28;20432;-84
2023/07/23 12:37:44;;;;;;;2.87;2.67;;;25.60;55.90;;;;;;5063037;28;20460;-81
2023/07/23 12:43:11;;;;;;;3.03;2.83;;;25.60;55.80;;;;;;5067132;28;20455;-81
2023/07/23 12:48:17;;;;;;;2.70;2.60;;;25.60;55.80;;;;;;5243901;22;20453;-85
2023/07/23 12:59:15;;;;;;;2.80;2.70;;;25.70;56.00;;;;;;5311856;22;20464;-80
2023/07/23 13:01:49;;;;;;;3.17;2.97;;;25.70;56.20;;;;;;5007479;28;20458;-83
2023/07/23 13:04:41;;;;;;;2.70;2.60;;;25.60;56.10;;;;;;5010714;28;20416;-84
2023/07/23 13:07:28;;;;;;;3.53;2.90;;;25.70;55.90;;;;;;4997430;28;20466;-83
2023/07/23 13:10:05;;;;;;;2.90;2.80;;;25.60;56.00;;;;;;4989205;28;20513;-84
2023/07/23 13:12:43;;;;;;;3.30;3.03;;;25.70;56.10;;;;;;4991685;28;20515;-84
2023/07/23 13:18:02;;;;;;;2.97;2.77;;;25.70;56.00;;;;;;4991179;28;20451;-82
2023/07/23 13:20:38;;;;;;;3.23;3.03;;;25.60;56.10;;;;;;4991338;28;20466;-84
2023/07/23 13:23:10;;;;;;;3.57;3.33;;;25.60;56.20;;;;;;4990886;28;20451;-85
2023/07/23 13:25:43;;;;;;;3.97;3.30;;;25.60;56.20;;;;;;4990064;28;20481;-83
2023/07/23 13:29:09;;;;;;;2.90;2.70;;;25.60;56.20;;;;;;4991236;28;20444;-82
2023/07/23 13:35:26;;;;;;;3.93;3.63;;;25.60;56.40;;;;;;4952697;29;20576;-83
2023/07/23 13:45:17;;;;;;;2.90;2.70;;;25.60;56.40;;;;;;4812367;29;20453;-84
2023/07/23 13:47:46;;;;;;;3.37;3.07;;;25.50;56.50;;;;;;4946045;28;20492;-84
2023/07/23 13:50:27;;;;;;;2.83;2.73;;;25.50;56.60;;;;;;4990803;28;20499;-85
2023/07/23 13:53:17;;;;;;;3.37;3.07;;;25.50;56.60;;;;;;4990011;28;20493;-84
2023/07/23 13:55:58;;;;;;;3.27;2.97;;;25.50;56.70;;;;;;4989598;28;20415;-84
2023/07/23 13:58:27;;;;;;;2.87;2.60;;;25.50;56.70;;;;;;4989255;28;20457;-85
2023/07/23 14:01:10;;;;;;;2.93;2.73;;;25.50;56.90;;;;;;4989246;28;20486;-83
2023/07/23 14:03:39;;;;;;;5.33;2.50;;;25.60;56.90;;;;;;4989031;28;20491;-83
2023/07/23 14:06:10;;;;;;;3.77;2.73;;;25.50;56.90;;;;;;4987396;28;20444;-84
2023/07/23 14:08:41;;;;;;;4.50;2.20;;;25.60;56.90;;;;;;4988456;28;20417;-83
2023/07/23 14:11:13;;;;;;;2.90;2.70;;;25.60;57.00;;;;;;4987837;28;20425;-84
2023/07/23 14:13:56;;;;;;;2.30;2.20;;;25.60;57.00;;;;;;4987838;28;20420;-84
2023/07/23 14:16:31;;;;;;;2.47;2.27;;;25.70;57.00;;;;;;4987684;28;20451;-84
2023/07/23 14:19:07;;;;;;;2.40;2.30;;;25.70;57.10;;;;;;4987217;28;20425;-84
2023/07/23 14:21:46;;;;;;;2.27;2.17;;;25.70;57.00;;;;;;4985428;28;20436;-84
2023/07/23 14:24:20;;;;;;;3.10;2.90;;;25.80;57.10;;;;;;4986894;28;20469;-83
2023/07/23 14:26:48;;;;;;;2.50;2.40;;;25.80;57.20;;;;;;4988010;28;20440;-84
2023/07/23 14:29:26;;;;;;;2.17;2.00;;;26.00;57.20;;;;;;4986731;28;20445;-84
2023/07/23 14:32:09;;;;;;;2.50;2.30;;;26.20;56.70;;;;;;4986396;28;20454;-83
2023/07/23 14:34:42;;;;;;;2.20;2.10;;;26.30;56.50;;;;;;4982813;28;20460;-84
2023/07/23 14:37:10;;;;;;;2.60;2.50;;;26.50;56.30;;;;;;5017829;23;20487;-80
2023/07/23 14:39:39;;;;;;;2.10;1.87;;;26.50;56.10;;;;;;5006158;28;20518;-78
2023/07/23 14:42:07;;;;;;;2.10;2.00;;;26.60;55.90;;;;;;5014987;28;20424;-78
2023/07/23 14:44:35;;;;;;;2.30;2.20;;;26.60;55.60;;;;;;4996079;28;20424;-78
2023/07/23 14:47:08;;;;;;;2.43;2.20;;;26.60;55.90;;;;;;5013478;28;20875;-79
2023/07/23 14:49:37;;;;;;;2.10;2.00;;;26.60;55.80;;;;;;5011529;28;20470;-78
2023/07/23 14:52:06;;;;;;;1.90;1.80;;;26.60;56.10;;;;;;5004024;28;20497;-77
2023/07/23 14:54:34;;;;;;;2.10;1.90;;;26.60;55.90;;;;;;4993095;28;20455;-79
2023/07/23 14:57:02;;;;;;;2.00;1.70;;;26.50;56.20;;;;;;4996678;28;20508;-78
2023/07/23 14:59:31;;;;;;;2.20;2.10;;;26.50;56.20;;;;;;4995896;28;20456;-77
2023/07/23 15:01:59;;;;;;;2.03;1.93;;;26.50;56.40;;;;;;4996636;28;20935;-77
2023/07/23 15:04:29;;;;;;;2.17;2.07;;;26.60;56.40;;;;;;4996191;28;20480;-78
2023/07/23 15:06:57;;;;;;;2.37;1.83;;;26.60;56.30;;;;;;5003753;28;20527;-78
2023/07/23 15:09:25;;;;;;;2.63;2.53;;;26.70;56.30;;;;;;4988558;28;20450;-79
2023/07/23 15:11:53;;;;;;;3.97;2.17;;;26.80;56.30;;;;;;4995474;28;20495;-77
2023/07/23 15:14:25;;;;;;;2.20;2.10;;;26.90;56.20;;;;;;5014889;28;20450;-78
2023/07/23 15:16:56;;;;;;;1.80;1.70;;;26.90;56.00;;;;;;5015871;28;20468;-78
2023/07/23 15:19:29;;;;;;;3.00;2.10;;;26.80;55.90;;;;;;5003708;28;20496;-79
2023/07/23 15:21:57;;;;;;;2.03;1.93;;;26.80;56.70;;;;;;4993223;28;20444;-79
2023/07/23 15:24:26;;;;;;;2.50;2.40;;;26.80;56.30;;;;;;4999323;28;20495;-82
2023/07/23 15:26:56;;;;;;;2.80;2.60;;;26.80;56.40;;;;;;5007956;28;20500;-80
2023/07/23 15:29:24;;;;;;;2.30;2.20;;;26.80;56.40;;;;;;4997825;28;20408;-80
2023/07/23 15:31:55;;;;;;;2.63;2.43;;;26.90;56.60;;;;;;5004589;28;20816;-80
2023/07/23 15:34:26;;;;;;;2.73;2.53;;;27.00;56.60;;;;;;5001469;28;20434;-81
2023/07/23 15:36:56;;;;;;;2.27;2.17;;;27.00;56.40;;;;;;5010698;28;20476;-80
2023/07/23 15:39:24;;;;;;;2.60;2.50;;;27.00;56.30;;;;;;4990035;28;20421;-79
2023/07/23 15:41:53;;;;;;;2.83;2.73;;;27.10;56.40;;;;;;5013634;28;20543;-80
2023/07/23 15:44:24;;;;;;;2.43;2.27;;;27.10;56.40;;;;;;5006160;28;20497;-79
2023/07/23 15:46:55;;;;;;;2.80;2.60;;;27.20;56.40;;;;;;5011913;28;20472;-80
2023/07/23 15:49:23;;;;;;;2.67;2.30;;;27.10;56.20;;;;;;5015574;28;20451;-79
2023/07/23 15:51:54;;;;;;;2.63;2.53;;;27.10;56.40;;;;;;4996485;28;20428;-81